sensor_id;sensor_type;location;lat;lon;timestamp;temperature;humidity
13203;DHT22;6666;51.626;7.530;2022-10-04T00:02:29;9.10;99.90
13203;DHT22;6666;51.626;7.530;2022-10-04T00:05:03;9.00;99.90
13203;DHT22;6666;51.626;7.530;2022-10-04T00:07:37;9.10;99.90
13203;DHT22;6666;51.626;7.530;2022-10-04T00:10:16;9.10;99.90
13203;DHT22;6666;51.626;7.530;2022-10-04T00:12:48;9.10;99.90
13203;DHT22;6666;51.626;7.530;2022-10-04T00:15:21;9.10;99.90
13203;DHT22;6666;51.626;7.530;2022-10-04T00:18:17;9.00;99.90
13203;DHT22;6666;51.626;7.530;2022-10-04T00:20:59;9.10;99.90
13203;DHT22;6666;51.626;7.530;2022-10-04T00:23:40;9.10;99.90
13203;DHT22;6666;51.626;7.530;2022-10-04T00:26:14;9.00;99.90
13203;DHT22;6666;51.626;7.530;2022-10-04T00:28:44;9.10;99.90
13203;DHT22;6666;51.626;7.530;2022-10-04T00:31:17;9.10;99.90
13203;DHT22;6666;51.626;7.530;2022-10-04T00:33:48;9.00;99.90
13203;DHT22;6666;51.626;7.530;2022-10-04T00:36:43;9.10;99.90
13203;DHT22;6666;51.626;7.530;2022-10-04T00:39:37;9.10;99.90
13203;DHT22;6666;51.626;7.530;2022-10-04T00:45:11;9.10;99.90
13203;DHT22;6666;51.626;7.530;2022-10-04T00:48:10;9.10;99.90
13203;DHT22;6666;51.626;7.530;2022-10-04T00:50:47;9.10;99.90
13203;DHT22;6666;51.626;7.530;2022-10-04T00:53:34;9.10;99.90
13203;DHT22;6666;51.626;7.530;2022-10-04T00:56:06;9.10;99.90
13203;DHT22;6666;51.626;7.530;2022-10-04T00:58:44;9.00;99.90
13203;DHT22;6666;51.626;7.530;2022-10-04T01:01:13;9.10;99.90
13203;DHT22;6666;51.626;7.530;2022-10-04T01:03:46;9.10;99.90
13203;DHT22;6666;51.626;7.530;2022-10-04T01:06:16;9.20;99.90
13203;DHT22;6666;51.626;7.530;2022-10-04T01:08:48;9.20;99.90
13203;DHT22;6666;51.626;7.530;2022-10-04T01:11:21;9.20;99.90
13203;DHT22;6666;51.626;7.530;2022-10-04T01:13:55;9.20;99.90
13203;DHT22;6666;51.626;7.530;2022-10-04T01:16:26;9.20;99.90
13203;DHT22;6666;51.626;7.530;2022-10-04T01:19:28;9.20;99.90
13203;DHT22;6666;51.626;7.530;2022-10-04T01:22:06;9.30;99.90
13203;DHT22;6666;51.626;7.530;2022-10-04T01:24:38;9.20;99.90
13203;DHT22;6666;51.626;7.530;2022-10-04T01:30:13;9.20;99.90
13203;DHT22;6666;51.626;7.530;2022-10-04T01:32:43;9.20;99.90
13203;DHT22;6666;51.626;7.530;2022-10-04T01:35:12;9.30;99.90
13203;DHT22;6666;51.626;7.530;2022-10-04T01:37:42;9.30;99.90
13203;DHT22;6666;51.626;7.530;2022-10-04T01:40:12;9.40;99.90
13203;DHT22;6666;51.626;7.530;2022-10-04T01:42:43;9.30;99.90
13203;DHT22;6666;51.626;7.530;2022-10-04T01:45:16;9.30;99.90
13203;DHT22;6666;51.626;7.530;2022-10-04T01:47:50;9.40;99.90
13203;DHT22;6666;51.626;7.530;2022-10-04T01:50:24;9.30;99.90
13203;DHT22;6666;51.626;7.530;2022-10-04T01:52:57;9.30;99.90
13203;DHT22;6666;51.626;7.530;2022-10-04T01:55:31;9.30;99.90
13203;DHT22;6666;51.626;7.530;2022-10-04T01:58:07;9.30;99.90
13203;DHT22;6666;51.626;7.530;2022-10-04T02:00:39;9.40;99.90
13203;DHT22;6666;51.626;7.530;2022-10-04T02:03:12;9.30;99.90
13203;DHT22;6666;51.626;7.530;2022-10-04T02:05:46;9.40;99.90
13203;DHT22;6666;51.626;7.530;2022-10-04T02:08:17;9.40;99.90
13203;DHT22;6666;51.626;7.530;2022-10-04T02:10:51;9.40;99.90
13203;DHT22;6666;51.626;7.530;2022-10-04T02:13:22;9.40;99.90
13203;DHT22;6666;51.626;7.530;2022-10-04T02:15:57;9.30;99.90
13203;DHT22;6666;51.626;7.530;2022-10-04T02:18:26;9.40;99.90
13203;DHT22;6666;51.626;7.530;2022-10-04T02:20:58;9.40;99.90
13203;DHT22;6666;51.626;7.530;2022-10-04T02:23:27;9.40;99.90
13203;DHT22;6666;51.626;7.530;2022-10-04T02:25:57;9.40;99.90
13203;DHT22;6666;51.626;7.530;2022-10-04T02:28:25;9.40;99.90
13203;DHT22;6666;51.626;7.530;2022-10-04T02:30:54;9.40;99.90
13203;DHT22;6666;51.626;7.530;2022-10-04T02:33:41;9.40;99.90
13203;DHT22;6666;51.626;7.530;2022-10-04T02:36:10;9.40;99.90
13203;DHT22;6666;51.626;7.530;2022-10-04T02:38:43;9.30;99.90
13203;DHT22;6666;51.626;7.530;2022-10-04T02:41:21;9.40;99.90
13203;DHT22;6666;51.626;7.530;2022-10-04T02:43:55;9.30;99.90
13203;DHT22;6666;51.626;7.530;2022-10-04T02:46:28;9.30;99.90
13203;DHT22;6666;51.626;7.530;2022-10-04T02:49:05;9.30;99.90
13203;DHT22;6666;51.626;7.530;2022-10-04T02:51:41;9.30;99.90
13203;DHT22;6666;51.626;7.530;2022-10-04T02:54:15;9.30;99.90
13203;DHT22;6666;51.626;7.530;2022-10-04T02:56:51;9.30;99.90
13203;DHT22;6666;51.626;7.530;2022-10-04T02:59:21;9.30;99.90
13203;DHT22;6666;51.626;7.530;2022-10-04T03:01:52;9.40;99.90
13203;DHT22;6666;51.626;7.530;2022-10-04T03:04:23;9.40;99.90
13203;DHT22;6666;51.626;7.530;2022-10-04T03:06:52;9.30;99.90
13203;DHT22;6666;51.626;7.530;2022-10-04T03:09:22;9.40;99.90
13203;DHT22;6666;51.626;7.530;2022-10-04T03:11:57;9.30;99.90
13203;DHT22;6666;51.626;7.530;2022-10-04T03:14:27;9.30;99.90
13203;DHT22;6666;51.626;7.530;2022-10-04T03:16:58;9.30;99.90
13203;DHT22;6666;51.626;7.530;2022-10-04T03:19:31;9.30;99.90
13203;DHT22;6666;51.626;7.530;2022-10-04T03:22:02;9.30;99.90
13203;DHT22;6666;51.626;7.530;2022-10-04T03:24:36;9.30;99.90
13203;DHT22;6666;51.626;7.530;2022-10-04T03:27:08;9.30;99.90
13203;DHT22;6666;51.626;7.530;2022-10-04T03:29:41;9.30;99.90
13203;DHT22;6666;51.626;7.530;2022-10-04T03:32:12;9.20;99.90
13203;DHT22;6666;51.626;7.530;2022-10-04T03:34:49;9.20;99.90
13203;DHT22;6666;51.626;7.530;2022-10-04T03:37:19;9.10;99.90
13203;DHT22;6666;51.626;7.530;2022-10-04T03:39:49;9.20;99.90
13203;DHT22;6666;51.626;7.530;2022-10-04T03:42:22;9.20;99.90
13203;DHT22;6666;51.626;7.530;2022-10-04T03:44:53;9.20;99.90
13203;DHT22;6666;51.626;7.530;2022-10-04T03:47:25;9.20;99.90
13203;DHT22;6666;51.626;7.530;2022-10-04T03:49:55;9.10;99.90
13203;DHT22;6666;51.626;7.530;2022-10-04T03:52:31;9.10;99.90
13203;DHT22;6666;51.626;7.530;2022-10-04T03:55:02;9.10;99.90
13203;DHT22;6666;51.626;7.530;2022-10-04T03:57:33;9.10;99.90
13203;DHT22;6666;51.626;7.530;2022-10-04T04:00:05;9.10;99.90
13203;DHT22;6666;51.626;7.530;2022-10-04T04:02:44;9.10;99.90
13203;DHT22;6666;51.626;7.530;2022-10-04T04:05:18;9.10;99.90
13203;DHT22;6666;51.626;7.530;2022-10-04T04:07:51;9.10;99.90
13203;DHT22;6666;51.626;7.530;2022-10-04T04:10:23;9.00;99.90
13203;DHT22;6666;51.626;7.530;2022-10-04T04:12:57;9.00;99.90
13203;DHT22;6666;51.626;7.530;2022-10-04T04:15:30;9.00;99.90
13203;DHT22;6666;51.626;7.530;2022-10-04T04:18:01;8.90;99.90
13203;DHT22;6666;51.626;7.530;2022-10-04T04:20:33;8.90;99.90
13203;DHT22;6666;51.626;7.530;2022-10-04T04:23:10;8.90;99.90
13203;DHT22;6666;51.626;7.530;2022-10-04T04:25:41;9.00;99.90
13203;DHT22;6666;51.626;7.530;2022-10-04T04:28:22;9.00;99.90
13203;DHT22;6666;51.626;7.530;2022-10-04T04:30:56;8.90;99.90
13203;DHT22;6666;51.626;7.530;2022-10-04T04:33:29;8.80;99.90
13203;DHT22;6666;51.626;7.530;2022-10-04T04:36:03;8.70;99.90
13203;DHT22;6666;51.626;7.530;2022-10-04T04:38:32;8.60;99.90
13203;DHT22;6666;51.626;7.530;2022-10-04T04:41:08;8.60;99.90
13203;DHT22;6666;51.626;7.530;2022-10-04T04:43:42;8.60;99.90
13203;DHT22;6666;51.626;7.530;2022-10-04T04:46:10;8.50;99.90
13203;DHT22;6666;51.626;7.530;2022-10-04T04:48:58;8.50;99.90
13203;DHT22;6666;51.626;7.530;2022-10-04T04:51:30;8.50;99.90
13203;DHT22;6666;51.626;7.530;2022-10-04T04:54:01;8.50;99.90
13203;DHT22;6666;51.626;7.530;2022-10-04T04:56:30;8.50;99.90
13203;DHT22;6666;51.626;7.530;2022-10-04T04:59:03;8.40;99.90
13203;DHT22;6666;51.626;7.530;2022-10-04T05:01:35;8.50;99.90
13203;DHT22;6666;51.626;7.530;2022-10-04T05:04:17;8.40;99.90
13203;DHT22;6666;51.626;7.530;2022-10-04T05:06:47;8.40;99.90
13203;DHT22;6666;51.626;7.530;2022-10-04T05:09:23;8.40;99.90
13203;DHT22;6666;51.626;7.530;2022-10-04T05:11:53;8.30;99.90
13203;DHT22;6666;51.626;7.530;2022-10-04T05:14:24;8.30;99.90
13203;DHT22;6666;51.626;7.530;2022-10-04T05:16:54;8.30;99.90
13203;DHT22;6666;51.626;7.530;2022-10-04T05:19:26;8.40;99.90
13203;DHT22;6666;51.626;7.530;2022-10-04T05:21:57;8.30;99.90
13203;DHT22;6666;51.626;7.530;2022-10-04T05:24:28;8.30;99.90
13203;DHT22;6666;51.626;7.530;2022-10-04T05:27:00;8.30;99.90
13203;DHT22;6666;51.626;7.530;2022-10-04T05:29:33;8.30;99.90
13203;DHT22;6666;51.626;7.530;2022-10-04T05:32:14;8.30;99.90
13203;DHT22;6666;51.626;7.530;2022-10-04T05:34:49;8.40;99.90
13203;DHT22;6666;51.626;7.530;2022-10-04T05:37:29;8.40;99.90
13203;DHT22;6666;51.626;7.530;2022-10-04T05:40:07;8.40;99.90
13203;DHT22;6666;51.626;7.530;2022-10-04T05:42:44;8.40;99.90
13203;DHT22;6666;51.626;7.530;2022-10-04T05:45:19;8.40;99.90
13203;DHT22;6666;51.626;7.530;2022-10-04T05:47:50;8.40;99.90
13203;DHT22;6666;51.626;7.530;2022-10-04T05:50:22;8.50;99.90
13203;DHT22;6666;51.626;7.530;2022-10-04T05:52:53;8.50;99.90
13203;DHT22;6666;51.626;7.530;2022-10-04T05:55:37;8.60;99.90
13203;DHT22;6666;51.626;7.530;2022-10-04T05:58:28;8.70;99.90
13203;DHT22;6666;51.626;7.530;2022-10-04T06:01:28;8.70;99.90
13203;DHT22;6666;51.626;7.530;2022-10-04T06:04:23;8.70;99.90
13203;DHT22;6666;51.626;7.530;2022-10-04T06:06:58;8.70;99.90
13203;DHT22;6666;51.626;7.530;2022-10-04T06:09:46;8.80;99.90
13203;DHT22;6666;51.626;7.530;2022-10-04T06:12:26;8.80;99.90
13203;DHT22;6666;51.626;7.530;2022-10-04T06:15:41;8.90;99.90
13203;DHT22;6666;51.626;7.530;2022-10-04T06:18:30;8.90;99.90
13203;DHT22;6666;51.626;7.530;2022-10-04T06:21:21;9.00;99.90
13203;DHT22;6666;51.626;7.530;2022-10-04T06:23:55;9.00;99.90
13203;DHT22;6666;51.626;7.530;2022-10-04T06:26:32;8.90;99.90
13203;DHT22;6666;51.626;7.530;2022-10-04T06:29:06;9.00;99.90
13203;DHT22;6666;51.626;7.530;2022-10-04T06:35:16;9.10;99.90
13203;DHT22;6666;51.626;7.530;2022-10-04T06:38:29;9.20;99.90
13203;DHT22;6666;51.626;7.530;2022-10-04T06:41:20;9.20;99.90
13203;DHT22;6666;51.626;7.530;2022-10-04T06:44:21;9.30;99.90
13203;DHT22;6666;51.626;7.530;2022-10-04T06:47:02;9.40;99.90
13203;DHT22;6666;51.626;7.530;2022-10-04T06:49:40;9.50;99.90
13203;DHT22;6666;51.626;7.530;2022-10-04T06:52:38;9.60;99.90
13203;DHT22;6666;51.626;7.530;2022-10-04T06:55:30;9.60;99.90
13203;DHT22;6666;51.626;7.530;2022-10-04T06:58:30;9.60;99.90
13203;DHT22;6666;51.626;7.530;2022-10-04T07:01:08;9.70;99.90
13203;DHT22;6666;51.626;7.530;2022-10-04T07:03:44;9.80;99.90
13203;DHT22;6666;51.626;7.530;2022-10-04T07:06:22;9.90;99.90
13203;DHT22;6666;51.626;7.530;2022-10-04T07:08:53;9.90;99.90
13203;DHT22;6666;51.626;7.530;2022-10-04T07:11:31;10.00;99.90
13203;DHT22;6666;51.626;7.530;2022-10-04T07:14:04;10.00;99.90
13203;DHT22;6666;51.626;7.530;2022-10-04T07:16:38;10.10;99.90
13203;DHT22;6666;51.626;7.530;2022-10-04T07:19:22;10.30;99.90
13203;DHT22;6666;51.626;7.530;2022-10-04T07:21:57;10.40;99.90
13203;DHT22;6666;51.626;7.530;2022-10-04T07:24:37;10.60;99.90
13203;DHT22;6666;51.626;7.530;2022-10-04T07:27:12;10.80;99.90
13203;DHT22;6666;51.626;7.530;2022-10-04T07:29:42;11.00;99.90
13203;DHT22;6666;51.626;7.530;2022-10-04T07:32:19;11.10;99.90
13203;DHT22;6666;51.626;7.530;2022-10-04T07:34:52;11.30;99.90
13203;DHT22;6666;51.626;7.530;2022-10-04T07:37:21;11.40;99.90
13203;DHT22;6666;51.626;7.530;2022-10-04T07:39:58;11.50;99.90
13203;DHT22;6666;51.626;7.530;2022-10-04T07:42:31;11.60;99.90
13203;DHT22;6666;51.626;7.530;2022-10-04T07:45:09;11.60;99.90
13203;DHT22;6666;51.626;7.530;2022-10-04T07:47:38;11.70;99.90
13203;DHT22;6666;51.626;7.530;2022-10-04T07:50:21;11.80;99.90
13203;DHT22;6666;51.626;7.530;2022-10-04T07:52:55;12.00;99.90
13203;DHT22;6666;51.626;7.530;2022-10-04T07:55:40;12.10;99.90
13203;DHT22;6666;51.626;7.530;2022-10-04T07:58:21;12.10;99.90
13203;DHT22;6666;51.626;7.530;2022-10-04T08:00:55;12.20;99.90
13203;DHT22;6666;51.626;7.530;2022-10-04T08:03:40;12.20;99.90
13203;DHT22;6666;51.626;7.530;2022-10-04T08:06:16;12.30;99.90
13203;DHT22;6666;51.626;7.530;2022-10-04T08:09:11;12.30;99.90
13203;DHT22;6666;51.626;7.530;2022-10-04T08:11:52;12.30;99.90
13203;DHT22;6666;51.626;7.530;2022-10-04T08:14:30;12.30;99.90
13203;DHT22;6666;51.626;7.530;2022-10-04T08:17:13;12.30;99.90
13203;DHT22;6666;51.626;7.530;2022-10-04T08:19:52;12.40;99.90
13203;DHT22;6666;51.626;7.530;2022-10-04T08:22:32;12.40;99.90
13203;DHT22;6666;51.626;7.530;2022-10-04T08:25:04;12.40;99.90
13203;DHT22;6666;51.626;7.530;2022-10-04T08:27:57;12.40;99.90
13203;DHT22;6666;51.626;7.530;2022-10-04T08:31:02;12.30;99.90
13203;DHT22;6666;51.626;7.530;2022-10-04T08:33:53;12.40;99.90
13203;DHT22;6666;51.626;7.530;2022-10-04T08:36:37;12.60;99.90
13203;DHT22;6666;51.626;7.530;2022-10-04T08:39:31;12.70;99.90
13203;DHT22;6666;51.626;7.530;2022-10-04T08:42:24;12.80;99.90
13203;DHT22;6666;51.626;7.530;2022-10-04T08:45:33;12.70;99.90
13203;DHT22;6666;51.626;7.530;2022-10-04T08:51:50;12.60;99.90
13203;DHT22;6666;51.626;7.530;2022-10-04T08:54:54;12.70;99.90
13203;DHT22;6666;51.626;7.530;2022-10-04T08:58:00;12.80;99.90
13203;DHT22;6666;51.626;7.530;2022-10-04T09:03:56;13.00;99.90
13203;DHT22;6666;51.626;7.530;2022-10-04T09:06:36;13.10;99.90
13203;DHT22;6666;51.626;7.530;2022-10-04T09:09:41;13.10;99.90
13203;DHT22;6666;51.626;7.530;2022-10-04T09:12:36;13.30;99.90
13203;DHT22;6666;51.626;7.530;2022-10-04T09:15:24;13.40;99.90
13203;DHT22;6666;51.626;7.530;2022-10-04T09:18:14;13.40;99.90
13203;DHT22;6666;51.626;7.530;2022-10-04T09:20:54;13.50;99.90
13203;DHT22;6666;51.626;7.530;2022-10-04T09:26:37;13.60;99.90
13203;DHT22;6666;51.626;7.530;2022-10-04T09:29:40;13.60;99.90
13203;DHT22;6666;51.626;7.530;2022-10-04T09:32:48;13.70;99.90
13203;DHT22;6666;51.626;7.530;2022-10-04T09:35:49;13.80;99.90
13203;DHT22;6666;51.626;7.530;2022-10-04T09:38:47;13.70;99.90
13203;DHT22;6666;51.626;7.530;2022-10-04T09:42:01;13.80;99.90
13203;DHT22;6666;51.626;7.530;2022-10-04T09:44:52;13.90;99.90
13203;DHT22;6666;51.626;7.530;2022-10-04T09:47:30;13.90;99.90
13203;DHT22;6666;51.626;7.530;2022-10-04T09:50:34;14.10;99.90
13203;DHT22;6666;51.626;7.530;2022-10-04T09:53:20;14.30;99.90
13203;DHT22;6666;51.626;7.530;2022-10-04T09:59:06;14.20;99.90
13203;DHT22;6666;51.626;7.530;2022-10-04T10:01:43;14.20;99.90
13203;DHT22;6666;51.626;7.530;2022-10-04T10:07:29;14.30;99.90
13203;DHT22;6666;51.626;7.530;2022-10-04T10:10:13;14.40;99.90
13203;DHT22;6666;51.626;7.530;2022-10-04T10:13:18;14.50;99.90
13203;DHT22;6666;51.626;7.530;2022-10-04T10:16:31;14.50;99.90
13203;DHT22;6666;51.626;7.530;2022-10-04T10:19:26;14.60;99.90
13203;DHT22;6666;51.626;7.530;2022-10-04T10:22:18;14.50;99.90
13203;DHT22;6666;51.626;7.530;2022-10-04T10:25:12;14.60;99.90
13203;DHT22;6666;51.626;7.530;2022-10-04T10:28:11;14.60;99.90
13203;DHT22;6666;51.626;7.530;2022-10-04T10:30:56;14.70;99.90
13203;DHT22;6666;51.626;7.530;2022-10-04T10:33:58;14.80;99.90
13203;DHT22;6666;51.626;7.530;2022-10-04T10:36:43;14.90;99.90
13203;DHT22;6666;51.626;7.530;2022-10-04T10:42:17;14.90;99.90
13203;DHT22;6666;51.626;7.530;2022-10-04T10:45:07;15.00;99.90
13203;DHT22;6666;51.626;7.530;2022-10-04T10:47:49;15.00;99.90
13203;DHT22;6666;51.626;7.530;2022-10-04T10:50:42;15.00;99.90
13203;DHT22;6666;51.626;7.530;2022-10-04T10:53:58;15.10;99.90
13203;DHT22;6666;51.626;7.530;2022-10-04T10:56:42;15.20;99.90
13203;DHT22;6666;51.626;7.530;2022-10-04T11:02:54;15.40;99.90
13203;DHT22;6666;51.626;7.530;2022-10-04T11:06:02;15.50;99.90
13203;DHT22;6666;51.626;7.530;2022-10-04T11:11:42;15.50;99.90
13203;DHT22;6666;51.626;7.530;2022-10-04T11:14:34;15.60;99.90
13203;DHT22;6666;51.626;7.530;2022-10-04T11:17:17;15.70;99.90
13203;DHT22;6666;51.626;7.530;2022-10-04T11:20:14;15.70;99.90
13203;DHT22;6666;51.626;7.530;2022-10-04T11:29:26;15.70;99.90
13203;DHT22;6666;51.626;7.530;2022-10-04T11:38:22;16.00;99.90
13203;DHT22;6666;51.626;7.530;2022-10-04T11:41:10;16.10;99.90
13203;DHT22;6666;51.626;7.530;2022-10-04T11:44:03;16.10;99.90
13203;DHT22;6666;51.626;7.530;2022-10-04T11:46:46;16.10;99.90
13203;DHT22;6666;51.626;7.530;2022-10-04T11:49:32;15.90;99.90
13203;DHT22;6666;51.626;7.530;2022-10-04T11:58:18;16.10;99.90
13203;DHT22;6666;51.626;7.530;2022-10-04T12:01:12;16.00;99.90
13203;DHT22;6666;51.626;7.530;2022-10-04T12:04:04;16.10;99.90
13203;DHT22;6666;51.626;7.530;2022-10-04T12:06:50;16.20;99.90
13203;DHT22;6666;51.626;7.530;2022-10-04T12:09:32;16.20;99.90
13203;DHT22;6666;51.626;7.530;2022-10-04T12:12:19;16.40;99.90
13203;DHT22;6666;51.626;7.530;2022-10-04T12:15:22;16.50;99.90
13203;DHT22;6666;51.626;7.530;2022-10-04T12:18:27;16.50;99.90
13203;DHT22;6666;51.626;7.530;2022-10-04T12:21:29;16.50;99.90
13203;DHT22;6666;51.626;7.530;2022-10-04T12:24:24;16.40;99.90
13203;DHT22;6666;51.626;7.530;2022-10-04T12:27:21;16.40;99.90
13203;DHT22;6666;51.626;7.530;2022-10-04T12:30:24;16.50;99.90
13203;DHT22;6666;51.626;7.530;2022-10-04T12:33:03;16.70;99.90
13203;DHT22;6666;51.626;7.530;2022-10-04T12:35:59;16.50;99.90
13203;DHT22;6666;51.626;7.530;2022-10-04T12:38:45;16.60;99.90
13203;DHT22;6666;51.626;7.530;2022-10-04T12:41:30;16.60;99.90
13203;DHT22;6666;51.626;7.530;2022-10-04T12:44:09;16.60;99.90
13203;DHT22;6666;51.626;7.530;2022-10-04T12:46:51;16.50;99.90
13203;DHT22;6666;51.626;7.530;2022-10-04T12:49:30;16.60;99.90
13203;DHT22;6666;51.626;7.530;2022-10-04T12:52:05;16.60;99.90
13203;DHT22;6666;51.626;7.530;2022-10-04T12:54:41;16.70;99.90
13203;DHT22;6666;51.626;7.530;2022-10-04T12:57:39;16.80;99.90
13203;DHT22;6666;51.626;7.530;2022-10-04T13:00:17;16.70;99.90
13203;DHT22;6666;51.626;7.530;2022-10-04T13:03:01;16.80;99.90
13203;DHT22;6666;51.626;7.530;2022-10-04T13:05:39;16.80;99.90
13203;DHT22;6666;51.626;7.530;2022-10-04T13:08:21;16.80;99.90
13203;DHT22;6666;51.626;7.530;2022-10-04T13:11:10;16.80;99.90
13203;DHT22;6666;51.626;7.530;2022-10-04T13:13:57;16.70;99.90
13203;DHT22;6666;51.626;7.530;2022-10-04T13:16:42;16.80;99.90
13203;DHT22;6666;51.626;7.530;2022-10-04T13:19:37;16.90;99.90
13203;DHT22;6666;51.626;7.530;2022-10-04T13:22:21;16.80;99.90
13203;DHT22;6666;51.626;7.530;2022-10-04T13:25:35;16.80;99.90
13203;DHT22;6666;51.626;7.530;2022-10-04T13:28:06;17.00;99.90
13203;DHT22;6666;51.626;7.530;2022-10-04T13:30:46;17.10;99.90
13203;DHT22;6666;51.626;7.530;2022-10-04T13:33:22;17.10;99.90
13203;DHT22;6666;51.626;7.530;2022-10-04T13:36:00;17.00;99.90
13203;DHT22;6666;51.626;7.530;2022-10-04T13:41:54;17.20;99.90
13203;DHT22;6666;51.626;7.530;2022-10-04T13:44:35;17.20;99.90
13203;DHT22;6666;51.626;7.530;2022-10-04T13:47:19;17.40;99.90
13203;DHT22;6666;51.626;7.530;2022-10-04T13:50:05;17.40;99.90
13203;DHT22;6666;51.626;7.530;2022-10-04T13:52:42;17.20;99.90
13203;DHT22;6666;51.626;7.530;2022-10-04T13:55:33;17.20;99.90
13203;DHT22;6666;51.626;7.530;2022-10-04T13:58:30;17.30;99.90
13203;DHT22;6666;51.626;7.530;2022-10-04T14:01:32;17.30;99.90
13203;DHT22;6666;51.626;7.530;2022-10-04T14:07:23;17.40;99.90
13203;DHT22;6666;51.626;7.530;2022-10-04T14:10:28;17.40;99.90
13203;DHT22;6666;51.626;7.530;2022-10-04T14:13:16;17.40;99.90
13203;DHT22;6666;51.626;7.530;2022-10-04T14:16:15;17.30;99.90
13203;DHT22;6666;51.626;7.530;2022-10-04T14:22:49;17.30;99.90
13203;DHT22;6666;51.626;7.530;2022-10-04T14:26:06;17.30;99.90
13203;DHT22;6666;51.626;7.530;2022-10-04T14:29:15;17.40;99.90
13203;DHT22;6666;51.626;7.530;2022-10-04T14:32:12;17.50;99.90
13203;DHT22;6666;51.626;7.530;2022-10-04T14:35:00;17.50;99.90
13203;DHT22;6666;51.626;7.530;2022-10-04T14:41:32;17.50;99.90
13203;DHT22;6666;51.626;7.530;2022-10-04T14:47:54;17.50;99.90
13203;DHT22;6666;51.626;7.530;2022-10-04T14:50:34;17.60;99.90
13203;DHT22;6666;51.626;7.530;2022-10-04T14:53:15;17.40;99.90
13203;DHT22;6666;51.626;7.530;2022-10-04T14:56:21;17.30;99.90
13203;DHT22;6666;51.626;7.530;2022-10-04T14:59:02;17.30;99.90
13203;DHT22;6666;51.626;7.530;2022-10-04T15:01:37;17.10;99.90
13203;DHT22;6666;51.626;7.530;2022-10-04T15:04:27;17.10;99.90
13203;DHT22;6666;51.626;7.530;2022-10-04T15:07:01;17.00;99.90
13203;DHT22;6666;51.626;7.530;2022-10-04T15:09:50;17.00;99.90
13203;DHT22;6666;51.626;7.530;2022-10-04T15:15:51;16.90;99.90
13203;DHT22;6666;51.626;7.530;2022-10-04T15:18:38;16.90;99.90
13203;DHT22;6666;51.626;7.530;2022-10-04T15:21:31;16.70;99.90
13203;DHT22;6666;51.626;7.530;2022-10-04T15:24:22;16.80;99.90
13203;DHT22;6666;51.626;7.530;2022-10-04T15:27:34;16.80;99.90
13203;DHT22;6666;51.626;7.530;2022-10-04T15:30:20;16.80;99.90
13203;DHT22;6666;51.626;7.530;2022-10-04T15:33:12;16.90;99.90
13203;DHT22;6666;51.626;7.530;2022-10-04T15:35:52;16.90;99.90
13203;DHT22;6666;51.626;7.530;2022-10-04T15:38:28;16.80;99.90
13203;DHT22;6666;51.626;7.530;2022-10-04T15:41:01;16.80;99.90
13203;DHT22;6666;51.626;7.530;2022-10-04T15:43:40;16.70;99.90
13203;DHT22;6666;51.626;7.530;2022-10-04T15:46:32;16.70;99.90
13203;DHT22;6666;51.626;7.530;2022-10-04T15:49:28;16.70;99.90
13203;DHT22;6666;51.626;7.530;2022-10-04T15:52:26;16.70;99.90
13203;DHT22;6666;51.626;7.530;2022-10-04T15:55:19;16.70;99.90
13203;DHT22;6666;51.626;7.530;2022-10-04T15:58:08;16.60;99.90
13203;DHT22;6666;51.626;7.530;2022-10-04T16:00:59;16.50;99.90
13203;DHT22;6666;51.626;7.530;2022-10-04T16:03:43;16.40;99.90
13203;DHT22;6666;51.626;7.530;2022-10-04T16:06:21;16.30;99.90
13203;DHT22;6666;51.626;7.530;2022-10-04T16:09:10;16.20;99.90
13203;DHT22;6666;51.626;7.530;2022-10-04T16:11:58;16.10;99.90
13203;DHT22;6666;51.626;7.530;2022-10-04T16:14:53;16.00;99.90
13203;DHT22;6666;51.626;7.530;2022-10-04T16:17:42;16.00;99.90
13203;DHT22;6666;51.626;7.530;2022-10-04T16:20:45;15.90;99.90
13203;DHT22;6666;51.626;7.530;2022-10-04T16:23:26;15.80;99.90
13203;DHT22;6666;51.626;7.530;2022-10-04T16:25:56;15.70;99.90
13203;DHT22;6666;51.626;7.530;2022-10-04T16:31:40;15.50;99.90
13203;DHT22;6666;51.626;7.530;2022-10-04T16:34:44;15.40;99.90
13203;DHT22;6666;51.626;7.530;2022-10-04T16:37:17;15.40;99.90
13203;DHT22;6666;51.626;7.530;2022-10-04T16:39:56;15.30;99.90
13203;DHT22;6666;51.626;7.530;2022-10-04T16:42:46;15.20;99.90
13203;DHT22;6666;51.626;7.530;2022-10-04T16:45:42;15.20;99.90
13203;DHT22;6666;51.626;7.530;2022-10-04T16:48:33;15.00;99.90
13203;DHT22;6666;51.626;7.530;2022-10-04T16:51:38;14.90;99.90
13203;DHT22;6666;51.626;7.530;2022-10-04T16:54:45;14.90;99.90
13203;DHT22;6666;51.626;7.530;2022-10-04T16:57:20;14.70;99.90
13203;DHT22;6666;51.626;7.530;2022-10-04T16:59:52;14.60;99.90
13203;DHT22;6666;51.626;7.530;2022-10-04T17:02:50;14.50;99.90
13203;DHT22;6666;51.626;7.530;2022-10-04T17:05:38;14.40;99.90
13203;DHT22;6666;51.626;7.530;2022-10-04T17:08:27;14.30;99.90
13203;DHT22;6666;51.626;7.530;2022-10-04T17:11:27;14.20;99.90
13203;DHT22;6666;51.626;7.530;2022-10-04T17:14:05;14.10;99.90
13203;DHT22;6666;51.626;7.530;2022-10-04T17:16:50;14.10;99.90
13203;DHT22;6666;51.626;7.530;2022-10-04T17:19:33;14.00;99.90
13203;DHT22;6666;51.626;7.530;2022-10-04T17:22:14;13.90;99.90
13203;DHT22;6666;51.626;7.530;2022-10-04T17:24:54;13.80;99.90
13203;DHT22;6666;51.626;7.530;2022-10-04T17:27:40;13.80;99.90
13203;DHT22;6666;51.626;7.530;2022-10-04T17:30:18;13.70;99.90
13203;DHT22;6666;51.626;7.530;2022-10-04T17:33:06;13.70;99.90
13203;DHT22;6666;51.626;7.530;2022-10-04T17:36:07;13.70;99.90
13203;DHT22;6666;51.626;7.530;2022-10-04T17:38:50;13.60;99.90
13203;DHT22;6666;51.626;7.530;2022-10-04T17:41:30;13.50;99.90
13203;DHT22;6666;51.626;7.530;2022-10-04T17:44:28;13.40;99.90
13203;DHT22;6666;51.626;7.530;2022-10-04T17:47:05;13.30;99.90
13203;DHT22;6666;51.626;7.530;2022-10-04T17:49:54;13.20;99.90
13203;DHT22;6666;51.626;7.530;2022-10-04T17:52:44;13.20;99.90
13203;DHT22;6666;51.626;7.530;2022-10-04T17:55:41;13.10;99.90
13203;DHT22;6666;51.626;7.530;2022-10-04T17:58:15;13.10;99.90
13203;DHT22;6666;51.626;7.530;2022-10-04T18:00:50;12.90;99.90
13203;DHT22;6666;51.626;7.530;2022-10-04T18:03:23;12.90;99.90
13203;DHT22;6666;51.626;7.530;2022-10-04T18:05:56;12.80;99.90
13203;DHT22;6666;51.626;7.530;2022-10-04T18:08:38;12.80;99.90
13203;DHT22;6666;51.626;7.530;2022-10-04T18:11:17;12.70;99.90
13203;DHT22;6666;51.626;7.530;2022-10-04T18:13:52;12.70;99.90
13203;DHT22;6666;51.626;7.530;2022-10-04T18:16:27;12.70;99.90
13203;DHT22;6666;51.626;7.530;2022-10-04T18:19:07;12.60;99.90
13203;DHT22;6666;51.626;7.530;2022-10-04T18:21:51;12.50;99.90
13203;DHT22;6666;51.626;7.530;2022-10-04T18:24:21;12.40;99.90
13203;DHT22;6666;51.626;7.530;2022-10-04T18:27:01;12.40;99.90
13203;DHT22;6666;51.626;7.530;2022-10-04T18:29:38;12.30;99.90
13203;DHT22;6666;51.626;7.530;2022-10-04T18:32:15;12.30;99.90
13203;DHT22;6666;51.626;7.530;2022-10-04T18:35:01;12.30;99.90
13203;DHT22;6666;51.626;7.530;2022-10-04T18:37:33;12.20;99.90
13203;DHT22;6666;51.626;7.530;2022-10-04T18:40:13;12.20;99.90
13203;DHT22;6666;51.626;7.530;2022-10-04T18:42:49;12.10;99.90
13203;DHT22;6666;51.626;7.530;2022-10-04T18:45:21;12.10;99.90
13203;DHT22;6666;51.626;7.530;2022-10-04T18:47:51;12.00;99.90